Time;durP1;ratioP1;P1;durP2;ratioP2;P2;SDS_P1;SDS_P2;PMS_P1;PMS_P2;Temp;Humidity;BMP_temperature;BMP_pressure;BME280_temperature;BME280_humidity;BME280_pressure;Samples;Min_cycle;Max_cycle;Signal;HPM_P1;HPM_P2
2022/12/17 13:06:54;;;;;;;30.15;17.45;;;-3275.40;91.80;;;;;;5027095;28;20036;-69
2022/12/17 13:09:28;;;;;;;26.05;16.52;;;-3275.40;91.70;;;;;;5016650;28;20479;-69
2022/12/17 13:12:15;;;;;;;30.63;15.98;;;-3275.40;91.60;;;;;;5024065;28;20080;-69
2022/12/17 13:14:54;;;;;;;27.50;16.13;;;-3275.30;91.40;;;;;;5028330;28;20061;-68
2022/12/17 13:17:54;;;;;;;28.70;15.88;;;-3275.30;91.40;;;;;;5026887;28;20026;-69
2022/12/17 13:20:30;;;;;;;28.30;16.23;;;-3275.30;91.60;;;;;;5008755;28;20048;-68
2022/12/17 13:23:10;;;;;;;28.67;15.73;;;-3275.30;91.70;;;;;;5039027;28;20038;-68
2022/12/17 13:25:42;;;;;;;28.05;16.08;;;-3275.40;91.60;;;;;;5025073;28;20028;-69
2022/12/17 13:28:26;;;;;;;31.25;16.30;;;-3275.30;91.70;;;;;;5104316;22;20062;-85
2022/12/17 13:31:00;;;;;;;43.63;27.20;;;-3275.30;91.90;;;;;;5000625;28;20034;-86
2022/12/17 13:33:49;;;;;;;32.38;17.65;;;-3275.30;92.10;;;;;;5012996;28;20242;-86
2022/12/17 13:36:29;;;;;;;28.10;16.90;;;-3275.30;92.10;;;;;;5000973;28;20070;-85
2022/12/17 13:39:09;;;;;;;26.93;15.07;;;-3275.30;92.10;;;;;;5012815;28;20037;-86
2022/12/17 13:41:37;;;;;;;51.75;32.38;;;-3275.30;92.10;;;;;;5005977;28;20296;-84
2022/12/17 13:44:20;;;;;;;30.63;16.70;;;-3275.20;92.00;;;;;;5033647;28;20026;-87
2022/12/17 13:46:47;;;;;;;32.58;18.23;;;-3275.20;92.10;;;;;;5010805;28;20042;-86
2022/12/17 13:49:21;;;;;;;35.45;15.55;;;-3275.20;92.00;;;;;;5010315;28;20040;-87
2022/12/17 13:51:46;;;;;;;27.58;15.20;;;-3275.20;91.70;;;;;;5004118;28;20465;-83
2022/12/17 13:54:18;;;;;;;32.35;19.95;;;-3275.20;91.70;;;;;;5004763;28;20102;-84
2022/12/17 13:56:44;;;;;;;55.28;32.60;;;-3275.10;91.60;;;;;;5007401;28;20026;-87
2022/12/17 13:59:22;;;;;;;31.95;19.67;;;-3275.10;91.90;;;;;;5008493;28;20102;-87
2022/12/17 14:01:51;;;;;;;46.72;28.90;;;-3275.00;91.90;;;;;;4998576;28;20079;-87
2022/12/17 14:04:23;;;;;;;43.65;28.67;;;-3275.00;91.80;;;;;;5002398;28;20086;-86
2022/12/17 14:06:50;;;;;;;32.03;20.30;;;-3275.00;91.90;;;;;;5014861;28;20053;-84
2022/12/17 14:09:17;;;;;;;27.63;16.92;;;-3274.90;92.00;;;;;;5014157;28;20034;-86
2022/12/17 14:14:36;;;;;;;28.63;15.93;;;-3274.80;91.90;;;;;;5026040;28;20037;-85
2022/12/17 14:17:02;;;;;;;27.05;16.58;;;-3274.80;91.90;;;;;;5015044;28;20036;-84
2022/12/17 14:19:29;;;;;;;28.88;15.73;;;-3274.80;91.90;;;;;;5009970;28;20026;-87
2022/12/17 14:21:55;;;;;;;30.13;20.90;;;-3274.70;91.90;;;;;;5011238;28;20055;-84
2022/12/17 14:24:25;;;;;;;35.22;16.63;;;-3274.70;91.90;;;;;;5007051;28;20032;-86
2022/12/17 14:26:54;;;;;;;29.77;18.42;;;-3274.60;91.70;;;;;;5006127;28;20045;-85
2022/12/17 14:29:25;;;;;;;28.33;15.63;;;-3274.70;91.50;;;;;;5010866;28;20057;-89
2022/12/17 14:32:20;;;;;;;23.92;14.82;;;-3274.60;91.60;;;;;;5013025;28;20107;-89
2022/12/17 14:34:45;;;;;;;24.95;15.32;;;-3274.60;91.70;;;;;;5006408;28;20038;-88
2022/12/17 14:37:16;;;;;;;53.85;30.48;;;-3274.50;91.80;;;;;;5014197;28;20124;-85
2022/12/17 14:39:44;;;;;;;34.15;23.27;;;-3274.30;91.80;;;;;;5011212;28;20033;-88
2022/12/17 14:42:28;;;;;;;38.25;25.00;;;-3274.30;92.20;;;;;;5019385;23;20060;-68
2022/12/17 14:45:05;;;;;;;26.25;14.52;;;-3274.20;92.50;;;;;;5015522;28;20093;-69
2022/12/17 14:47:36;;;;;;;41.88;21.65;;;-3274.30;92.50;;;;;;5004372;28;20044;-68
2022/12/17 14:50:11;;;;;;;43.85;25.20;;;-3274.20;92.40;;;;;;5009070;28;20034;-68
2022/12/17 14:52:45;;;;;;;42.22;24.38;;;-3274.10;92.40;;;;;;5011458;28;20061;-69
2022/12/17 14:55:30;;;;;;;37.95;23.65;;;-3274.00;92.40;;;;;;5006001;28;20387;-69
2022/12/17 14:58:10;;;;;;;33.33;19.63;;;-3273.90;92.60;;;;;;5006599;28;20037;-69
2022/12/17 15:00:46;;;;;;;27.92;16.08;;;-3273.80;92.80;;;;;;5013494;28;20121;-69
2022/12/17 15:03:20;;;;;;;38.05;18.90;;;-3273.80;93.00;;;;;;5015230;28;20030;-69
2022/12/17 15:06:03;;;;;;;33.25;19.00;;;-3273.70;93.20;;;;;;5004910;28;20034;-68
2022/12/17 15:08:32;;;;;;;31.05;15.55;;;-3273.60;93.30;;;;;;5008340;28;20045;-70
2022/12/17 15:10:58;;;;;;;41.30;20.80;;;-3273.60;93.50;;;;;;5006536;28;20029;-69
2022/12/17 15:13:23;;;;;;;39.28;19.73;;;-3273.50;93.40;;;;;;5010221;28;20034;-70
2022/12/17 15:15:49;;;;;;;33.78;17.83;;;-3273.50;93.60;;;;;;5018512;28;20034;-70
2022/12/17 15:18:14;;;;;;;29.95;16.08;;;-3273.50;93.70;;;;;;5004686;28;20038;-69
2022/12/17 15:20:40;;;;;;;32.35;17.35;;;-3273.50;93.80;;;;;;5011559;28;20030;-69
2022/12/17 15:23:13;;;;;;;30.38;17.80;;;-3273.60;93.60;;;;;;5014101;28;20087;-69
2022/12/17 15:25:38;;;;;;;32.35;18.35;;;-3273.50;93.60;;;;;;5003548;28;20441;-70
2022/12/17 15:28:04;;;;;;;34.80;19.05;;;-3273.40;93.60;;;;;;5010750;28;20133;-69
2022/12/17 15:30:29;;;;;;;30.13;17.67;;;-3273.40;93.90;;;;;;5010168;28;20111;-69
2022/12/17 15:32:56;;;;;;;32.22;18.38;;;-3273.20;93.80;;;;;;5010198;28;20078;-68
2022/12/17 15:35:21;;;;;;;35.80;20.23;;;-3273.10;94.00;;;;;;5019527;28;20029;-68
2022/12/17 15:37:47;;;;;;;31.02;17.58;;;-3273.10;94.20;;;;;;5010239;28;20029;-70
2022/12/17 15:40:12;;;;;;;33.50;18.63;;;-3273.10;94.40;;;;;;5006825;28;20081;-69
2022/12/17 15:45:22;;;;;;;30.15;17.80;;;-3273.10;94.40;;;;;;5004107;28;20053;-69
2022/12/17 15:47:48;;;;;;;36.00;19.55;;;-3273.10;94.50;;;;;;5008927;28;20470;-69
2022/12/17 15:50:13;;;;;;;35.33;21.40;;;-3273.10;94.50;;;;;;5005840;28;20073;-70
2022/12/17 15:52:38;;;;;;;32.40;19.15;;;-3273.10;94.40;;;;;;5009398;28;20034;-69
2022/12/17 15:55:04;;;;;;;39.88;20.55;;;-3273.00;94.50;;;;;;5008084;28;20100;-70
2022/12/17 15:57:30;;;;;;;36.80;20.73;;;-3273.00;94.50;;;;;;5007309;28;20022;-70
2022/12/17 15:59:55;;;;;;;50.72;25.45;;;-3273.00;94.40;;;;;;5002139;28;20034;-69
2022/12/17 16:02:21;;;;;;;36.30;21.52;;;-3273.00;94.40;;;;;;5006997;28;20076;-69
2022/12/17 16:04:46;;;;;;;40.08;20.27;;;-3273.00;94.80;;;;;;5012117;28;20494;-69
2022/12/17 16:07:12;;;;;;;32.92;18.75;;;-3273.00;94.60;;;;;;5010452;28;20030;-68
2022/12/17 16:09:38;;;;;;;36.33;20.35;;;-3273.00;94.80;;;;;;5009327;28;20454;-69
2022/12/17 16:12:03;;;;;;;38.03;20.88;;;-3273.00;94.50;;;;;;5010758;28;20449;-69
2022/12/17 16:14:29;;;;;;;36.55;20.65;;;-3273.00;94.60;;;;;;5008887;28;20038;-69
2022/12/17 16:16:54;;;;;;;34.88;21.48;;;-3272.90;94.60;;;;;;5021340;28;20026;-69
2022/12/17 16:19:19;;;;;;;39.30;20.85;;;-3273.00;94.90;;;;;;5013819;28;20460;-69
2022/12/17 16:21:45;;;;;;;36.50;20.48;;;-3272.90;94.70;;;;;;5017589;28;20072;-69
2022/12/17 16:24:11;;;;;;;40.17;21.55;;;-3272.80;94.70;;;;;;5008342;28;20104;-68
2022/12/17 16:26:37;;;;;;;38.67;21.58;;;-3272.80;94.80;;;;;;5005829;28;20045;-68
2022/12/17 16:29:02;;;;;;;45.10;22.85;;;-3272.80;94.80;;;;;;4999250;28;20074;-67
2022/12/17 16:31:28;;;;;;;38.47;20.85;;;-3272.80;94.80;;;;;;5005566;28;20108;-67
2022/12/17 16:33:53;;;;;;;35.15;20.17;;;-3272.80;95.00;;;;;;5003586;28;20037;-67
2022/12/17 16:36:20;;;;;;;35.63;19.85;;;-3272.90;94.90;;;;;;5002264;28;20038;-69
2022/12/17 16:38:48;;;;;;;32.75;18.35;;;-3272.90;94.80;;;;;;5009566;28;20040;-68
2022/12/17 16:41:15;;;;;;;32.25;19.30;;;-3272.80;94.60;;;;;;5007939;28;20029;-67
2022/12/17 16:43:41;;;;;;;35.10;18.38;;;-3272.80;94.80;;;;;;5009512;28;20053;-68
2022/12/17 16:46:28;;;;;;;28.95;16.30;;;-3272.80;94.70;;;;;;5012792;28;20026;-68
2022/12/17 16:48:55;;;;;;;31.85;18.02;;;-3272.90;94.80;;;;;;5004694;28;20069;-68
2022/12/17 16:51:24;;;;;;;31.05;18.30;;;-3272.80;94.50;;;;;;5011954;28;20034;-67
2022/12/17 16:53:49;;;;;;;34.25;19.58;;;-3272.80;94.40;;;;;;5014488;28;20124;-67
2022/12/17 16:56:17;;;;;;;37.90;20.45;;;-3272.70;94.40;;;;;;5012399;28;20447;-68
2022/12/17 16:58:43;;;;;;;30.52;18.10;;;-3272.70;94.30;;;;;;5010629;28;20104;-68
2022/12/17 17:01:09;;;;;;;42.42;23.42;;;-3272.70;94.70;;;;;;5013043;28;20033;-68
2022/12/17 17:03:41;;;;;;;40.05;23.20;;;-3272.80;94.70;;;;;;5013801;28;20038;-68
2022/12/17 17:06:07;;;;;;;37.20;20.80;;;-3272.80;94.60;;;;;;5011582;28;20122;-68
2022/12/17 17:08:35;;;;;;;38.38;20.80;;;-3272.80;94.60;;;;;;5014300;28;20044;-67
2022/12/17 17:11:10;;;;;;;39.30;20.75;;;-3272.90;94.60;;;;;;5013318;28;20026;-67
2022/12/17 17:13:36;;;;;;;43.33;24.40;;;-3272.90;94.50;;;;;;5007548;28;20414;-68
2022/12/17 17:16:01;;;;;;;36.42;21.45;;;-3272.80;94.40;;;;;;5013152;28;20080;-68
2022/12/17 17:18:27;;;;;;;34.35;19.77;;;-3272.80;94.60;;;;;;5013198;28;20482;-68
2022/12/17 17:20:52;;;;;;;41.80;22.05;;;-3272.70;94.50;;;;;;5011975;28;20442;-67
2022/12/17 17:23:17;;;;;;;36.88;22.02;;;-3272.70;94.70;;;;;;5013807;28;20561;-68
2022/12/17 17:25:43;;;;;;;40.45;22.80;;;-3272.60;94.60;;;;;;5012724;28;20033;-68
2022/12/17 17:28:08;;;;;;;38.80;21.27;;;-3272.60;94.90;;;;;;5010940;28;20389;-67
2022/12/17 17:30:34;;;;;;;35.65;20.55;;;-3272.60;95.00;;;;;;5010261;28;20088;-68
2022/12/17 17:32:59;;;;;;;33.63;20.33;;;-3272.50;95.10;;;;;;5012507;28;20042;-68
2022/12/17 17:35:25;;;;;;;37.63;21.88;;;-3272.40;95.00;;;;;;4999294;28;20486;-67
2022/12/17 17:37:50;;;;;;;38.10;21.63;;;-3272.30;95.10;;;;;;5009097;28;20088;-69
2022/12/17 17:40:16;;;;;;;40.30;21.23;;;-3272.20;95.30;;;;;;5008273;28;20042;-67
2022/12/17 17:42:41;;;;;;;40.45;22.05;;;-3272.20;95.40;;;;;;5006433;28;20403;-67
2022/12/17 17:45:07;;;;;;;48.55;23.50;;;-3272.10;95.60;;;;;;5004407;28;20038;-67
2022/12/17 17:47:33;;;;;;;40.53;23.00;;;-3272.20;95.70;;;;;;5005833;28;20033;-67
2022/12/17 17:49:58;;;;;;;41.65;22.38;;;-3272.20;95.90;;;;;;5010762;28;20036;-67
2022/12/17 17:52:24;;;;;;;51.13;25.98;;;-3272.20;96.00;;;;;;5003565;28;20034;-67
2022/12/17 17:54:49;;;;;;;52.72;25.58;;;-3272.00;95.90;;;;;;5008212;28;20108;-68
2022/12/17 17:57:15;;;;;;;47.00;25.58;;;-3272.00;96.00;;;;;;5011781;28;20057;-68
2022/12/17 17:59:40;;;;;;;48.13;25.85;;;-3272.10;96.20;;;;;;5011971;28;20069;-69
2022/12/17 18:02:08;;;;;;;44.65;25.40;;;-3272.10;96.30;;;;;;5013449;28;20030;-68
2022/12/17 18:04:34;;;;;;;56.60;26.73;;;-3272.10;96.40;;;;;;5013698;28;20359;-68
2022/12/17 18:06:59;;;;;;;45.60;23.65;;;-3272.10;96.40;;;;;;5011238;28;20049;-68
2022/12/17 18:09:25;;;;;;;36.33;23.02;;;-3272.20;96.50;;;;;;5009721;28;20045;-67
2022/12/17 18:11:50;;;;;;;38.53;21.80;;;-3272.10;96.50;;;;;;5010155;28;20034;-66
2022/12/17 18:14:17;;;;;;;44.08;23.23;;;-3272.00;96.30;;;;;;5025331;28;20038;-67
2022/12/17 18:16:45;;;;;;;43.47;22.55;;;-3271.90;96.20;;;;;;5017066;28;20036;-67
2022/12/17 18:19:14;;;;;;;38.88;21.48;;;-3271.90;96.40;;;;;;5020586;28;20108;-67
2022/12/17 18:21:40;;;;;;;36.80;20.45;;;-3271.90;96.50;;;;;;5010690;28;20025;-67
2022/12/17 18:24:17;;;;;;;42.75;23.15;;;-3271.90;96.70;;;;;;5018973;28;20112;-67
2022/12/17 18:26:44;;;;;;;43.47;23.08;;;-3271.80;96.40;;;;;;5008567;28;20469;-69
2022/12/17 18:29:15;;;;;;;39.75;23.00;;;-3271.70;96.50;;;;;;5008255;28;20042;-67
2022/12/17 18:31:41;;;;;;;43.40;23.23;;;-3271.60;96.50;;;;;;5016075;28;20042;-66
2022/12/17 18:34:07;;;;;;;45.22;22.10;;;-3271.50;96.50;;;;;;5008167;28;20038;-66
2022/12/17 18:36:37;;;;;;;46.35;23.42;;;-3271.40;96.50;;;;;;5004969;28;20091;-68
2022/12/17 18:39:14;;;;;;;38.40;21.67;;;-3271.20;96.40;;;;;;5006047;28;20032;-67
2022/12/17 18:44:25;;;;;;;39.28;21.73;;;-3271.10;96.50;;;;;;5002904;28;20255;-67
2022/12/17 18:46:50;;;;;;;42.97;21.27;;;-3271.00;96.60;;;;;;5004819;28;20095;-66
2022/12/17 18:49:18;;;;;;;41.60;20.92;;;-3271.00;96.70;;;;;;5008443;28;20116;-66
2022/12/17 18:51:46;;;;;;;44.90;23.13;;;-3270.80;96.60;;;;;;5004597;28;20058;-66
2022/12/17 18:54:14;;;;;;;45.05;24.75;;;-3270.80;96.60;;;;;;4999486;28;20092;-66
2022/12/17 18:56:40;;;;;;;43.60;24.17;;;-3270.80;96.80;;;;;;5006253;28;20061;-66
2022/12/17 18:59:05;;;;;;;49.85;26.23;;;-3270.80;96.80;;;;;;5008224;28;20092;-67
2022/12/17 19:01:34;;;;;;;45.92;25.85;;;-3270.70;96.70;;;;;;5007874;28;20390;-67
2022/12/17 19:04:04;;;;;;;45.78;25.10;;;-3270.60;96.70;;;;;;5006461;28;20041;-67
2022/12/17 19:06:30;;;;;;;44.38;23.35;;;-3270.60;96.70;;;;;;4994475;28;20459;-67
2022/12/17 19:08:56;;;;;;;42.47;22.23;;;-3270.40;96.80;;;;;;5005002;28;20034;-68
2022/12/17 19:11:22;;;;;;;43.20;21.30;;;-3270.50;97.10;;;;;;5012302;28;20493;-66
2022/12/17 19:13:48;;;;;;;43.50;21.58;;;-3270.60;97.30;;;;;;5005003;28;20117;-66
2022/12/17 19:16:23;;;;;;;36.55;20.23;;;-3270.60;97.10;;;;;;5002625;28;20030;-65
2022/12/17 19:18:58;;;;;;;38.10;21.25;;;-3270.50;96.90;;;;;;5006679;28;20076;-66
2022/12/17 19:21:24;;;;;;;43.78;22.20;;;-3270.40;96.90;;;;;;5000410;28;20034;-67
2022/12/17 19:23:55;;;;;;;45.90;23.58;;;-3270.30;96.90;;;;;;5006608;28;20132;-66
2022/12/17 19:26:21;;;;;;;52.28;24.40;;;-3270.20;96.80;;;;;;5009668;28;20040;-65
2022/12/17 19:28:49;;;;;;;43.00;22.95;;;-3270.10;96.80;;;;;;5007076;28;20049;-66
2022/12/17 19:31:16;;;;;;;40.75;20.67;;;-3270.00;96.70;;;;;;5008264;28;20440;-67
2022/12/17 19:33:42;;;;;;;38.97;20.23;;;-3269.90;96.70;;;;;;5010597;28;20038;-67
2022/12/17 19:36:17;;;;;;;46.17;21.88;;;-3269.90;96.80;;;;;;5006964;28;20079;-67
2022/12/17 19:38:42;;;;;;;46.22;21.77;;;-3269.80;96.80;;;;;;5005882;28;20037;-69
2022/12/17 19:41:16;;;;;;;49.25;22.67;;;-3269.80;96.80;;;;;;5005864;28;20049;-67
2022/12/17 19:43:43;;;;;;;55.38;26.75;;;-3269.70;96.70;;;;;;5015149;28;20050;-67
2022/12/17 19:46:17;;;;;;;52.35;24.75;;;-3269.70;96.80;;;;;;5015772;28;20057;-67
2022/12/17 19:48:44;;;;;;;50.97;25.02;;;-3269.60;96.80;;;;;;5008500;28;20041;-67
2022/12/17 19:51:11;;;;;;;50.75;24.42;;;-3269.60;96.70;;;;;;5011132;28;20212;-66
2022/12/17 19:53:38;;;;;;;40.17;22.08;;;-3269.50;96.70;;;;;;5007822;28;20540;-66
2022/12/17 19:56:15;;;;;;;38.70;19.50;;;-3269.50;96.70;;;;;;5008312;28;20084;-67
2022/12/17 19:58:42;;;;;;;37.90;18.40;;;-3269.60;96.90;;;;;;5008385;28;20488;-67
2022/12/17 20:01:11;;;;;;;36.60;18.05;;;-3269.80;97.20;;;;;;5008965;28;20071;-66
2022/12/17 20:03:39;;;;;;;36.78;17.65;;;-3269.90;97.30;;;;;;5004999;28;20050;-66
2022/12/17 20:06:05;;;;;;;37.15;18.63;;;-3270.10;97.50;;;;;;5002350;28;20157;-67
2022/12/17 20:08:32;;;;;;;36.40;18.17;;;-3270.30;97.50;;;;;;4994395;28;20513;-67
2022/12/17 20:11:00;;;;;;;37.63;19.10;;;-3270.20;97.40;;;;;;5006833;28;20042;-67
2022/12/17 20:13:26;;;;;;;38.15;18.42;;;-3270.30;97.50;;;;;;5005224;28;20025;-67
2022/12/17 20:16:02;;;;;;;42.47;19.45;;;-3270.40;97.60;;;;;;5002599;28;20032;-66
2022/12/17 20:18:28;;;;;;;42.97;20.10;;;-3270.60;97.80;;;;;;5008950;28;20030;-68
2022/12/17 20:21:04;;;;;;;43.30;21.42;;;-3270.60;97.70;;;;;;5011524;28;20036;-67
2022/12/17 20:23:30;;;;;;;45.13;20.00;;;-3270.70;97.70;;;;;;5003902;28;20028;-67
2022/12/17 20:26:08;;;;;;;43.45;20.98;;;-3270.60;97.60;;;;;;5009729;28;20030;-67
2022/12/17 20:28:34;;;;;;;38.33;19.20;;;-3270.60;97.50;;;;;;5007858;28;20033;-66
2022/12/17 20:31:01;;;;;;;35.70;19.05;;;-3270.60;97.50;;;;;;5014776;28;20119;-67
2022/12/17 20:33:27;;;;;;;43.38;19.90;;;-3270.60;97.60;;;;;;5006186;28;20084;-69
2022/12/17 20:35:53;;;;;;;35.17;17.58;;;-3270.60;97.40;;;;;;5010175;28;20466;-66
2022/12/17 20:38:19;;;;;;;35.67;18.15;;;-3270.60;97.50;;;;;;5010164;28;20367;-66
2022/12/17 20:40:44;;;;;;;32.90;18.23;;;-3270.60;97.30;;;;;;5015947;28;20037;-66
2022/12/17 20:43:10;;;;;;;38.25;18.08;;;-3270.50;97.50;;;;;;5013314;28;20435;-66
2022/12/17 20:45:35;;;;;;;39.38;18.42;;;-3270.50;97.30;;;;;;5010134;28;20030;-66
2022/12/17 20:48:01;;;;;;;35.25;17.50;;;-3270.50;97.40;;;;;;5010743;28;20034;-67
2022/12/17 20:50:26;;;;;;;35.20;18.00;;;-3270.60;97.50;;;;;;5011437;28;20034;-67
2022/12/17 20:52:52;;;;;;;29.55;15.93;;;-3270.60;97.30;;;;;;5016844;28;20454;-67
2022/12/17 20:55:18;;;;;;;34.63;16.35;;;-3270.70;97.40;;;;;;5001467;28;20445;-66
2022/12/17 20:57:43;;;;;;;32.85;15.88;;;-3270.70;97.40;;;;;;5005690;28;20037;-66
2022/12/17 21:00:10;;;;;;;37.80;17.02;;;-3270.80;97.40;;;;;;5010260;28;20383;-66
2022/12/17 21:02:36;;;;;;;33.40;16.23;;;-3270.80;97.30;;;;;;5010432;28;20014;-66
2022/12/17 21:05:02;;;;;;;36.88;17.10;;;-3270.80;97.20;;;;;;5004045;28;20038;-65
2022/12/17 21:07:28;;;;;;;37.28;15.18;;;-3270.80;97.10;;;;;;5011910;28;20057;-66
2022/12/17 21:09:53;;;;;;;27.77;15.85;;;-3270.70;97.00;;;;;;5008168;28;20033;-66
2022/12/17 21:12:18;;;;;;;26.30;14.55;;;-3270.70;96.80;;;;;;5000351;28;20411;-67
2022/12/17 21:14:44;;;;;;;31.10;14.95;;;-3270.80;97.00;;;;;;5009262;28;20049;-67
2022/12/17 21:17:09;;;;;;;29.30;16.13;;;-3270.80;96.80;;;;;;5007656;28;20030;-66
2022/12/17 21:19:35;;;;;;;33.78;15.43;;;-3270.70;96.60;;;;;;5003744;28;20072;-67
2022/12/17 21:22:01;;;;;;;29.35;14.57;;;-3270.80;96.70;;;;;;5002563;28;21381;-67
2022/12/17 21:24:26;;;;;;;38.22;14.80;;;-3271.00;96.90;;;;;;5004742;28;20037;-67
2022/12/17 21:26:51;;;;;;;32.50;15.15;;;-3271.10;96.80;;;;;;5005126;28;20026;-67
2022/12/17 21:29:17;;;;;;;35.28;16.23;;;-3271.20;96.70;;;;;;5000263;28;20049;-67
2022/12/17 21:31:45;;;;;;;29.85;14.95;;;-3271.30;96.60;;;;;;5003456;28;20454;-66
2022/12/17 21:34:13;;;;;;;35.08;16.25;;;-3271.40;96.40;;;;;;5006345;28;20034;-66
2022/12/17 21:36:39;;;;;;;32.50;14.75;;;-3271.50;96.30;;;;;;5012077;28;20110;-66
2022/12/17 21:39:07;;;;;;;35.58;13.80;;;-3271.60;96.10;;;;;;5010053;28;20038;-66
2022/12/17 21:41:34;;;;;;;32.00;14.52;;;-3271.70;95.70;;;;;;5012143;28;20056;-66
2022/12/17 21:44:03;;;;;;;32.05;13.90;;;-3271.70;95.50;;;;;;5010211;28;20053;-66
2022/12/17 21:46:29;;;;;;;27.50;12.75;;;-3271.80;95.20;;;;;;5012779;28;20032;-66
2022/12/17 21:48:56;;;;;;;29.55;14.50;;;-3271.80;95.10;;;;;;5007238;28;20497;-67
2022/12/17 21:51:22;;;;;;;35.95;14.43;;;-3271.80;95.00;;;;;;5007933;28;20029;-66
2022/12/17 21:53:55;;;;;;;27.80;12.48;;;-3271.80;94.70;;;;;;5010948;28;20441;-66
2022/12/17 21:56:20;;;;;;;26.58;13.85;;;-3271.60;94.40;;;;;;5012751;28;20115;-67
2022/12/17 21:58:46;;;;;;;27.15;12.77;;;-3271.60;94.70;;;;;;5000889;28;20057;-66
2022/12/17 22:01:16;;;;;;;25.05;12.38;;;-3271.70;94.60;;;;;;5002690;28;20034;-66
2022/12/17 22:03:42;;;;;;;31.50;13.00;;;-3271.80;94.60;;;;;;4977399;28;20073;-70
2022/12/17 22:06:12;;;;;;;29.00;13.75;;;-3271.80;94.60;;;;;;4991712;28;20117;-67
2022/12/17 22:08:39;;;;;;;33.05;13.38;;;-3271.80;94.20;;;;;;5006198;28;20129;-68
2022/12/17 22:11:12;;;;;;;24.98;11.98;;;-3271.70;94.20;;;;;;5013875;28;20534;-68
2022/12/17 22:16:23;;;;;;;29.35;12.32;;;-3271.70;94.10;;;;;;5011283;28;20085;-67
2022/12/17 22:18:49;;;;;;;30.33;13.18;;;-3271.60;94.10;;;;;;5008471;28;20046;-68
2022/12/17 22:21:14;;;;;;;22.25;12.00;;;-3271.60;94.10;;;;;;5007660;28;20036;-67
2022/12/17 22:23:40;;;;;;;29.85;13.45;;;-3271.50;94.20;;;;;;5010274;28;20355;-67
2022/12/17 22:26:09;;;;;;;27.13;12.93;;;-3271.60;94.30;;;;;;5010157;28;20037;-66
2022/12/17 22:28:35;;;;;;;25.92;12.98;;;-3271.50;94.10;;;;;;5011784;28;20041;-66
2022/12/17 22:33:53;;;;;;;31.98;14.15;;;-3271.30;94.10;;;;;;5008998;28;20037;-66
2022/12/17 22:36:18;;;;;;;34.60;15.90;;;-3271.20;94.20;;;;;;5009431;28;20462;-67
2022/12/17 22:38:44;;;;;;;28.33;14.65;;;-3271.10;94.20;;;;;;5014639;28;20042;-66
2022/12/17 22:43:28;;;;;;;26.02;13.93;;;-3271.10;94.40;;;;;;5011740;28;20053;-66
2022/12/17 22:43:59;;;;;;;31.13;14.13;;;-3271.00;94.50;;;;;;5002841;28;20402;-68
2022/12/17 22:46:24;;;;;;;34.40;14.88;;;-3271.00;94.50;;;;;;5011624;28;20076;-67
2022/12/17 22:48:50;;;;;;;27.67;13.35;;;-3271.00;94.60;;;;;;5015624;28;20113;-66
2022/12/17 22:51:16;;;;;;;29.75;14.00;;;-3271.00;94.80;;;;;;5008518;28;20025;-66
2022/12/17 22:53:42;;;;;;;29.02;14.02;;;-3271.00;94.80;;;;;;5006412;28;20033;-66
2022/12/17 22:56:08;;;;;;;29.02;15.23;;;-3271.00;94.80;;;;;;5011953;28;20030;-66
2022/12/17 22:58:36;;;;;;;32.15;15.27;;;-3271.00;94.80;;;;;;5012640;28;20049;-68
2022/12/17 23:01:03;;;;;;;23.77;13.88;;;-3270.90;94.80;;;;;;5010414;28;20065;-66
2022/12/17 23:03:28;;;;;;;29.77;15.63;;;-3270.90;94.80;;;;;;5009881;28;20026;-66
2022/12/17 23:06:06;;;;;;;26.90;13.95;;;-3270.90;94.90;;;;;;5007638;28;20072;-66
2022/12/17 23:08:31;;;;;;;28.75;14.07;;;-3270.90;95.00;;;;;;5010032;28;20064;-66
2022/12/17 23:10:57;;;;;;;29.77;13.88;;;-3270.90;94.90;;;;;;5003993;28;20026;-66
2022/12/17 23:13:22;;;;;;;32.20;13.75;;;-3271.00;94.90;;;;;;5006025;28;20022;-66
2022/12/17 23:15:49;;;;;;;25.35;13.68;;;-3271.00;94.90;;;;;;5010438;28;20033;-66
2022/12/17 23:18:15;;;;;;;28.50;13.32;;;-3271.00;94.90;;;;;;5010806;28;20038;-70
2022/12/17 23:20:40;;;;;;;27.63;13.77;;;-3271.00;94.80;;;;;;5006713;28;20462;-67
2022/12/17 23:23:06;;;;;;;33.63;13.30;;;-3271.00;94.90;;;;;;5008236;28;20087;-68
2022/12/17 23:25:31;;;;;;;22.83;12.50;;;-3271.00;94.60;;;;;;5008439;28;20049;-66
2022/12/17 23:27:57;;;;;;;26.02;13.55;;;-3270.90;94.60;;;;;;5018158;28;20103;-68
2022/12/17 23:30:22;;;;;;;25.77;13.02;;;-3270.90;94.70;;;;;;5006640;28;20026;-66
2022/12/17 23:32:48;;;;;;;25.05;12.43;;;-3270.80;94.70;;;;;;5007674;28;20038;-67
2022/12/17 23:35:13;;;;;;;23.65;12.77;;;-3270.80;94.70;;;;;;5005231;28;20371;-66
2022/12/17 23:37:39;;;;;;;22.05;12.32;;;-3270.80;94.80;;;;;;5009841;28;20462;-66
2022/12/17 23:40:10;;;;;;;26.60;13.25;;;-3270.80;94.90;;;;;;5013441;28;20359;-71
2022/12/17 23:42:35;;;;;;;29.50;14.15;;;-3270.70;94.70;;;;;;5009722;28;20050;-67
2022/12/17 23:45:01;;;;;;;24.25;12.05;;;-3270.70;94.80;;;;;;5009120;28;20030;-66
2022/12/17 23:47:27;;;;;;;23.95;12.25;;;-3270.80;95.00;;;;;;5009115;28;20116;-66
2022/12/17 23:49:53;;;;;;;25.77;13.10;;;-3270.70;94.80;;;;;;5007541;28;20034;-69
2022/12/17 23:52:18;;;;;;;24.95;12.98;;;-3270.70;94.70;;;;;;5012284;28;20092;-66
2022/12/17 23:54:44;;;;;;;23.45;12.80;;;-3270.80;95.00;;;;;;5017073;28;20113;-67
2022/12/17 23:57:09;;;;;;;21.90;11.10;;;-3270.70;94.70;;;;;;5016974;28;20073;-68
2022/12/17 23:59:34;;;;;;;25.83;12.70;;;-3270.70;94.80;;;;;;5012941;28;20030;-66
